createdAt,value
2023-03-19T00:00:30.052Z,7.97
2023-03-19T00:05:30.096Z,6.27
2023-03-19T00:10:30.071Z,4.45
2023-03-19T00:15:30.091Z,4.34
2023-03-19T00:20:30.083Z,4.23
2023-03-19T00:25:30.091Z,3.57
2023-03-19T00:30:30.106Z,3.37
2023-03-19T00:35:30.062Z,3.58
2023-03-19T00:40:30.075Z,3.33
2023-03-19T00:45:30.088Z,3.74
2023-03-19T00:50:30.078Z,4.52
2023-03-19T00:55:30.095Z,3.59
2023-03-19T01:00:30.065Z,3.53
2023-03-19T01:05:30.116Z,3.46
2023-03-19T01:10:30.128Z,3.95
2023-03-19T01:15:30.105Z,3.39
2023-03-19T01:20:30.068Z,3.43
2023-03-19T01:25:30.078Z,3.6
2023-03-19T01:30:30.074Z,3.83
2023-03-19T01:35:30.115Z,3.73
2023-03-19T01:40:30.105Z,3.36
2023-03-19T01:45:30.108Z,3.49
2023-03-19T01:50:30.126Z,3.24
2023-03-19T01:55:30.078Z,3.17
2023-03-19T02:00:30.122Z,2.94
2023-03-19T02:05:30.118Z,2.93
2023-03-19T02:10:30.128Z,2.8
2023-03-19T02:15:30.090Z,2.67
2023-03-19T02:20:30.096Z,2.89
2023-03-19T02:25:30.090Z,2.96
2023-03-19T02:30:30.136Z,2.73
2023-03-19T02:35:30.109Z,3.06
2023-03-19T02:40:30.164Z,2.92
2023-03-19T02:45:30.118Z,2.65
2023-03-19T02:50:30.130Z,2.63
2023-03-19T02:55:30.122Z,2.68
2023-03-19T03:00:30.175Z,2.97
2023-03-19T03:05:30.144Z,4.11
2023-03-19T03:10:30.142Z,3.17
2023-03-19T03:15:30.116Z,3.19
2023-03-19T03:20:30.113Z,3.37
2023-03-19T03:25:30.137Z,3.77
2023-03-19T03:30:30.145Z,2.99
2023-03-19T03:35:30.199Z,2.7
2023-03-19T03:40:30.154Z,2.78
2023-03-19T03:45:30.140Z,2.74
2023-03-19T03:50:30.126Z,2.64
2023-03-19T03:55:30.151Z,2.57
2023-03-19T04:00:30.166Z,2.56
2023-03-19T04:05:30.157Z,2.31
2023-03-19T04:10:30.178Z,2.45
2023-03-19T04:15:30.140Z,2.24
2023-03-19T04:20:30.144Z,2.3
2023-03-19T04:25:30.153Z,2.38
2023-03-19T04:30:30.206Z,2.59
2023-03-19T04:35:30.221Z,2.54
2023-03-19T04:40:30.164Z,2.48
2023-03-19T04:45:30.147Z,2.75
2023-03-19T04:50:30.221Z,2.7
2023-03-19T04:55:30.189Z,3.37
2023-03-19T05:00:30.186Z,5.85
2023-03-19T05:05:30.156Z,6.25
2023-03-19T05:10:30.161Z,4.84
2023-03-19T05:15:30.170Z,4.09
2023-03-19T05:20:30.191Z,2.93
2023-03-19T05:25:30.206Z,3.21
2023-03-19T05:30:30.155Z,2.79
2023-03-19T05:35:30.171Z,2.7
2023-03-19T05:40:30.200Z,2.82
2023-03-19T05:45:30.155Z,2.51
2023-03-19T05:50:30.175Z,2.87
2023-03-19T05:55:30.185Z,2.94
2023-03-19T06:00:30.180Z,3.17
2023-03-19T06:05:30.206Z,3.16
2023-03-19T06:10:30.208Z,2.8
2023-03-19T06:15:30.183Z,2.98
2023-03-19T06:20:30.184Z,2.92
2023-03-19T06:25:30.171Z,2.96
2023-03-19T06:30:30.214Z,2.74
2023-03-19T06:35:30.244Z,2.84
2023-03-19T06:40:30.191Z,2.77
2023-03-19T06:45:30.256Z,2.29
2023-03-19T06:50:30.196Z,2.36
2023-03-19T06:55:30.228Z,2.22
2023-03-19T07:00:30.192Z,2.19
2023-03-19T07:05:30.249Z,1.78
2023-03-19T07:10:30.206Z,2.51
2023-03-19T07:15:30.199Z,2.51
2023-03-19T07:20:01.866Z,2.76
2023-03-19T07:25:01.760Z,2.44
2023-03-19T07:30:01.772Z,2.15
2023-03-19T07:35:01.796Z,2.62
2023-03-19T07:40:01.809Z,2.68
2023-03-19T07:45:01.775Z,2.65
2023-03-19T07:50:01.810Z,2.74
2023-03-19T07:55:01.794Z,2.89
2023-03-19T08:00:01.818Z,2.54
2023-03-19T08:05:01.782Z,2.23
2023-03-19T08:10:01.806Z,2.7
2023-03-19T08:15:01.846Z,3.07
2023-03-19T08:20:01.805Z,2.99
2023-03-19T08:25:01.787Z,2.91
2023-03-19T08:30:01.794Z,2.53
2023-03-19T08:35:01.788Z,2.68
2023-03-19T08:40:01.812Z,2.31
2023-03-19T08:45:01.819Z,2.31
2023-03-19T08:50:01.807Z,2.36
2023-03-19T08:55:01.818Z,2.4
2023-03-19T09:00:01.835Z,1.88
2023-03-19T09:05:01.818Z,2.28
2023-03-19T09:10:01.829Z,2.42
2023-03-19T09:15:01.844Z,2.41
2023-03-19T09:20:01.839Z,2.18
2023-03-19T09:25:01.824Z,2.38
2023-03-19T09:30:01.814Z,2.43
2023-03-19T09:35:01.802Z,2.46
2023-03-19T09:40:01.859Z,2.27
2023-03-19T09:45:01.814Z,2.35
2023-03-19T09:50:01.822Z,1.93
2023-03-19T09:55:01.813Z,2.12
2023-03-19T10:00:01.872Z,2.58
2023-03-19T10:05:01.854Z,2.35
2023-03-19T10:10:01.862Z,2.27
2023-03-19T10:15:01.873Z,2.08
2023-03-19T10:20:01.864Z,2.13
2023-03-19T10:25:01.860Z,1.95
2023-03-19T10:30:01.848Z,1.96
2023-03-19T10:35:01.837Z,1.88
2023-03-19T10:40:01.844Z,1.97
2023-03-19T10:45:01.853Z,1.77
2023-03-19T10:50:01.880Z,1.92
2023-03-19T10:55:01.904Z,1.74
2023-03-19T11:00:02.208Z,2.25
2023-03-19T11:05:01.866Z,2.01
2023-03-19T11:10:01.865Z,1.98
2023-03-19T11:15:01.853Z,1.73
2023-03-19T11:20:01.893Z,1.88
2023-03-19T11:25:01.896Z,2.01
2023-03-19T11:30:01.907Z,1.86
2023-03-19T11:35:01.879Z,2.11
2023-03-19T11:40:01.887Z,2.06
2023-03-19T11:45:01.923Z,2
2023-03-19T11:50:01.908Z,2.12
2023-03-19T11:55:01.915Z,1.97
2023-03-19T12:00:01.921Z,1.95
2023-03-19T12:05:01.913Z,1.79
2023-03-19T12:10:01.939Z,2.02
2023-03-19T12:15:01.894Z,1.8
2023-03-19T12:20:01.933Z,2.12
2023-03-19T12:25:01.952Z,2.14
2023-03-19T12:30:01.915Z,2.04
2023-03-19T12:35:01.953Z,2.02
2023-03-19T12:40:01.988Z,2.36
2023-03-19T12:45:01.921Z,2.26
2023-03-19T12:50:01.978Z,2.01
2023-03-19T12:55:01.922Z,3.04
2023-03-19T13:00:01.987Z,2.11
2023-03-19T13:05:01.969Z,2.2
2023-03-19T13:10:01.937Z,2.27
2023-03-19T13:15:01.944Z,2.61
2023-03-19T13:20:01.971Z,2.32
2023-03-19T13:25:01.969Z,1.85
2023-03-19T13:30:01.982Z,1.87
2023-03-19T13:35:01.950Z,2.07
2023-03-19T13:40:01.991Z,2.17
2023-03-19T13:45:03.825Z,2.08
2023-03-19T13:50:02.063Z,2.32
2023-03-19T13:55:01.983Z,2.57
2023-03-19T14:00:01.951Z,3.47
2023-03-19T14:05:01.962Z,3.25
2023-03-19T14:10:02.000Z,2.83
2023-03-19T14:15:01.996Z,2.71
2023-03-19T14:20:07.102Z,3
2023-03-19T14:25:01.972Z,3.4
2023-03-19T14:30:02.045Z,2.2
2023-03-19T14:35:01.985Z,2.23
2023-03-19T14:40:02.028Z,14.6
2023-03-19T14:45:02.013Z,3.67
2023-03-19T14:50:01.997Z,1.64
2023-03-19T14:55:02.063Z,2
2023-03-19T15:00:02.047Z,2.25
2023-03-19T15:10:02.038Z,3.12
2023-03-19T15:15:02.029Z,3.05
2023-03-19T15:20:02.062Z,2.87
2023-03-19T15:31:13.718Z,4.22
2023-03-19T15:36:02.520Z,3.78
2023-03-19T15:45:34.938Z,2.94
2023-03-19T15:50:38.391Z,2.61
2023-03-19T15:52:09.837Z,2.86
2023-03-19T15:57:09.798Z,2.45
2023-03-19T16:02:09.958Z,2.54
2023-03-19T16:03:45.275Z,2.15
2023-03-19T16:05:25.311Z,2.33
2023-03-19T16:10:22.905Z,2.21
2023-03-19T16:15:22.870Z,2.39
2023-03-19T16:20:22.896Z,2.68
2023-03-19T16:25:22.876Z,3.46
2023-03-19T16:30:22.908Z,3.11
2023-03-19T16:35:22.909Z,2.7
2023-03-19T16:40:22.873Z,3.27
2023-03-19T16:45:22.873Z,2.96
2023-03-19T16:50:22.896Z,6.01
2023-03-19T16:55:22.910Z,7.84
2023-03-19T17:00:22.884Z,6.26
2023-03-19T17:05:22.909Z,5.76
2023-03-19T17:10:22.883Z,6.48
2023-03-19T17:15:22.894Z,6.01
2023-03-19T17:20:22.887Z,9.04
2023-03-19T17:25:22.883Z,12.07
2023-03-19T17:30:22.923Z,10.57
2023-03-19T17:35:22.898Z,10.96
2023-03-19T17:40:22.935Z,13.68
2023-03-19T17:45:22.922Z,25.01
2023-03-19T17:50:22.895Z,18.45
2023-03-19T18:00:23.037Z,7.61
2023-03-19T18:02:23.235Z,5.51
2023-03-19T18:07:23.804Z,5.79
2023-03-19T18:12:24.195Z,4.97
2023-03-19T18:17:24.142Z,5.39
2023-03-19T18:26:25.012Z,4.61
2023-03-19T18:31:25.073Z,4.84
2023-03-19T18:34:28.798Z,5.67
2023-03-19T18:40:37.709Z,7.74
2023-03-19T18:45:37.602Z,7.73
2023-03-19T18:46:41.156Z,5.82
2023-03-19T18:51:51.339Z,6.36
2023-03-19T18:56:41.174Z,7.6
2023-03-19T19:01:41.171Z,6.92
2023-03-19T19:06:47.550Z,11.25
2023-03-19T19:11:41.150Z,23.52
2023-03-19T19:17:12.583Z,27.82
2023-03-19T19:22:12.608Z,22.5
2023-03-19T19:32:12.580Z,14.13
2023-03-19T19:37:12.616Z,15.06
2023-03-19T19:42:12.649Z,14.8
2023-03-19T19:47:13.316Z,13.42
2023-03-19T19:52:12.560Z,12.27
2023-03-19T19:57:12.617Z,11.33
2023-03-19T20:02:12.574Z,8.97
2023-03-19T20:12:12.607Z,8.39
2023-03-19T20:17:12.576Z,9.54
2023-03-19T20:22:12.610Z,10.48
2023-03-19T20:32:12.574Z,11.52
2023-03-19T20:42:12.631Z,21.28
2023-03-19T20:47:12.618Z,14.64
2023-03-19T20:52:12.658Z,14.96
2023-03-19T20:57:12.593Z,16.21
2023-03-19T21:02:12.591Z,13.39
2023-03-19T21:07:12.629Z,12.13
2023-03-19T21:17:12.634Z,9.02
2023-03-19T21:27:12.632Z,10.19
2023-03-19T21:37:12.635Z,16.19
2023-03-19T21:42:12.648Z,10.68
2023-03-19T21:47:12.690Z,8.98
2023-03-19T21:52:12.649Z,9.48
2023-03-19T21:57:12.613Z,10.8
2023-03-19T22:02:12.620Z,12.53
2023-03-19T22:07:12.623Z,12.36
2023-03-19T22:12:12.615Z,19.6
2023-03-19T22:17:12.622Z,30.31
2023-03-19T22:22:12.651Z,26.18
2023-03-19T22:27:12.656Z,19.96
2023-03-19T22:32:12.654Z,16.3
2023-03-19T22:37:12.653Z,17.24
2023-03-19T22:42:12.667Z,21.13
2023-03-19T22:47:12.640Z,21.92
2023-03-19T22:52:12.639Z,16.26
2023-03-19T22:57:12.641Z,18.88
2023-03-19T23:02:12.669Z,23.32
2023-03-19T23:07:12.643Z,18.78
2023-03-19T23:12:12.711Z,15.19
2023-03-19T23:17:12.634Z,18.83
2023-03-19T23:22:12.641Z,21.02
2023-03-19T23:27:12.642Z,22.5
2023-03-19T23:32:12.654Z,23.98
2023-03-19T23:37:12.647Z,21.79
2023-03-19T23:42:12.682Z,20.55
2023-03-19T23:47:12.644Z,23.3
2023-03-19T23:52:12.642Z,23.8
2023-03-19T23:57:12.687Z,20.22
